Las Vegas, Nevada
Traffic Map
Current Weather Conditions
Las Vegas, Nevada
Overcast Light Rain
Overcast

Feels Like: 7°
Wind Chill: Ceiling: 3300
Heat Index: Visibility: 6mi
Dew Point: Wind: 6mph
Humidity: 86% Direction: 160° (SSE)
Pressure: 29.38in Gusts: 0mph
Raw Report DataKLAS 202356Z 16005KT 6SM -RA BR FEW020 SCT025 OVC033 08/06 A2938 RMK AO2 SLP944 VIS LWR N MTNS OBSCD DSNT N-NE AND W-NW P0013 60024 T00830061 10083 20078 58025
Traffic Incident Summary
Active as of:
Severity:
Category:
InformationThere was an issue retrieving the traffic information for this location. Please try a different location or try again shortly.
Advertisements
Track Severe Weather on mobile